createdAt,value
2022-10-19T00:01:12.550Z,8.67
2022-10-19T00:03:39.577Z,8.63
2022-10-19T00:06:13.563Z,8.40
2022-10-19T00:08:40.348Z,8.65
2022-10-19T00:11:07.594Z,8.79
2022-10-19T00:13:34.313Z,8.52
2022-10-19T00:16:00.799Z,8.43
2022-10-19T00:18:27.164Z,8.34
2022-10-19T00:21:01.829Z,8.50
2022-10-19T00:23:28.173Z,8.72
2022-10-19T00:25:56.044Z,8.26
2022-10-19T00:28:22.447Z,8.28
2022-10-19T00:33:20.631Z,8.58
2022-10-19T00:35:48.339Z,8.24
2022-10-19T00:38:14.748Z,8.52
2022-10-19T00:40:41.135Z,8.69
2022-10-19T00:43:19.429Z,8.20
2022-10-19T00:45:46.342Z,8.37
2022-10-19T00:48:17.044Z,8.21
2022-10-19T00:50:45.109Z,8.49
2022-10-19T00:53:12.314Z,8.24
2022-10-19T00:55:39.661Z,8.67
2022-10-19T00:58:06.288Z,8.48
2022-10-19T01:00:32.820Z,8.44
2022-10-19T01:05:30.746Z,8.45
2022-10-19T01:07:57.480Z,8.11
2022-10-19T01:10:37.817Z,8.56
2022-10-19T01:13:18.193Z,8.52
2022-10-19T01:18:39.649Z,8.41
2022-10-19T01:21:20.917Z,8.57
2022-10-19T01:24:40.571Z,8.47
2022-10-19T01:27:25.471Z,8.39
2022-10-19T01:30:02.615Z,8.38
2022-10-19T01:32:40.623Z,8.36
2022-10-19T01:35:24.275Z,8.50
2022-10-19T01:38:14.765Z,8.51
2022-10-19T01:40:54.091Z,8.12
2022-10-19T01:43:49.441Z,8.41
2022-10-19T01:46:27.251Z,8.24
2022-10-19T01:49:09.750Z,8.48
2022-10-19T01:51:42.871Z,8.38
2022-10-19T01:54:13.231Z,8.26
2022-10-19T01:56:42.521Z,8.30
2022-10-19T01:59:11.416Z,8.25
2022-10-19T02:01:42.040Z,7.85
2022-10-19T02:04:10.057Z,8.42
2022-10-19T02:06:37.052Z,8.59
2022-10-19T02:09:03.723Z,8.53
2022-10-19T02:11:31.565Z,8.27
2022-10-19T02:14:02.802Z,8.04
2022-10-19T02:16:42.153Z,8.35
2022-10-19T02:19:12.334Z,8.39
2022-10-19T02:21:39.546Z,8.36
2022-10-19T02:24:06.053Z,8.39
2022-10-19T02:26:33.005Z,8.00
2022-10-19T02:28:59.767Z,8.27
2022-10-19T02:31:26.517Z,8.20
2022-10-19T02:33:53.619Z,8.21
2022-10-19T02:36:20.211Z,8.30
2022-10-19T02:38:46.794Z,8.36
2022-10-19T02:41:27.179Z,8.02
2022-10-19T02:43:58.333Z,8.33
2022-10-19T02:46:46.277Z,8.27
2022-10-19T02:49:13.461Z,8.13
2022-10-19T02:51:55.029Z,8.16
2022-10-19T02:54:21.501Z,7.90
2022-10-19T02:56:48.081Z,8.40
2022-10-19T02:59:14.469Z,8.41
2022-10-19T03:01:40.856Z,8.25
2022-10-19T03:04:07.293Z,8.19
2022-10-19T03:06:33.808Z,8.29
2022-10-19T03:09:00.250Z,8.05
2022-10-19T03:11:26.685Z,8.17
2022-10-19T03:13:53.101Z,8.18
2022-10-19T03:16:19.508Z,7.70
2022-10-19T03:18:50.993Z,8.11
2022-10-19T03:21:18.237Z,7.94
2022-10-19T03:23:44.624Z,7.76
2022-10-19T03:26:14.661Z,7.65
2022-10-19T03:28:41.234Z,7.83
2022-10-19T03:31:07.683Z,7.78
2022-10-19T03:33:34.092Z,7.84
2022-10-19T03:36:24.053Z,7.88
2022-10-19T03:38:52.039Z,7.64
2022-10-19T03:41:20.391Z,7.92
2022-10-19T03:43:47.192Z,7.71
2022-10-19T03:46:14.045Z,7.75
2022-10-19T03:48:41.004Z,7.24
2022-10-19T03:51:10.103Z,7.81
2022-10-19T03:53:37.000Z,7.72
2022-10-19T03:56:10.805Z,7.35
2022-10-19T03:58:38.639Z,7.74
2022-10-19T04:01:12.306Z,7.69
2022-10-19T04:03:39.018Z,7.23
2022-10-19T04:06:11.023Z,7.65
2022-10-19T04:08:37.558Z,7.52
2022-10-19T04:11:10.958Z,7.37
2022-10-19T04:13:37.401Z,7.15
2022-10-19T04:16:04.346Z,7.50
2022-10-19T04:18:30.841Z,7.59
2022-10-19T04:21:02.839Z,7.65
2022-10-19T04:23:32.599Z,7.65
2022-10-19T04:26:06.164Z,7.03
2022-10-19T04:28:33.553Z,7.29
2022-10-19T04:31:04.946Z,7.60
2022-10-19T04:33:32.409Z,7.08
2022-10-19T04:36:03.145Z,7.53
2022-10-19T04:38:30.084Z,7.40
2022-10-19T04:40:56.526Z,7.03
2022-10-19T04:43:23.059Z,7.03
2022-10-19T04:45:49.486Z,7.58
2022-10-19T04:48:15.902Z,7.33
2022-10-19T04:50:42.292Z,7.15
2022-10-19T04:53:08.762Z,7.05
2022-10-19T04:55:40.643Z,7.57
2022-10-19T04:58:07.032Z,7.39
2022-10-19T05:00:33.505Z,7.10
2022-10-19T05:02:59.974Z,7.44
2022-10-19T05:05:26.401Z,7.49
2022-10-19T05:07:52.810Z,7.02
2022-10-19T05:10:19.244Z,7.40
2022-10-19T05:12:45.667Z,7.35
2022-10-19T05:15:12.148Z,7.16
2022-10-19T05:17:38.591Z,7.08
2022-10-19T05:20:05.517Z,7.40
2022-10-19T05:22:31.970Z,7.38
2022-10-19T05:24:58.403Z,7.40
2022-10-19T05:27:24.858Z,7.36
2022-10-19T05:29:51.255Z,7.38
2022-10-19T05:32:17.691Z,7.02
2022-10-19T05:34:44.103Z,7.02
2022-10-19T05:37:10.490Z,7.33
2022-10-19T05:39:36.926Z,7.29
2022-10-19T05:42:03.485Z,6.90
2022-10-19T05:44:29.962Z,7.39
2022-10-19T05:46:56.400Z,6.95
2022-10-19T05:49:23.098Z,7.43
2022-10-19T05:51:50.136Z,7.01
2022-10-19T05:54:17.173Z,6.96
2022-10-19T05:56:43.943Z,7.28
2022-10-19T05:59:15.266Z,7.46
2022-10-19T06:01:41.687Z,7.33
2022-10-19T06:04:08.111Z,6.87
2022-10-19T06:06:34.558Z,7.30
2022-10-19T06:09:00.953Z,6.79
2022-10-19T06:11:30.534Z,7.27
2022-10-19T06:13:59.521Z,7.24
2022-10-19T06:16:27.513Z,7.27
2022-10-19T06:18:54.933Z,7.20
2022-10-19T06:21:24.715Z,7.22
2022-10-19T06:23:56.010Z,7.17
2022-10-19T06:26:23.317Z,6.96
2022-10-19T06:28:50.679Z,7.37
2022-10-19T06:31:17.776Z,7.10
2022-10-19T06:33:48.522Z,7.07
2022-10-19T06:36:21.449Z,7.31
2022-10-19T06:38:48.814Z,6.81
2022-10-19T06:41:15.484Z,6.90
2022-10-19T06:43:42.030Z,7.42
2022-10-19T06:46:11.391Z,7.06
2022-10-19T06:48:37.945Z,7.26
2022-10-19T06:51:06.624Z,7.30
2022-10-19T06:53:34.003Z,7.51
2022-10-19T06:56:07.170Z,7.43
2022-10-19T06:58:38.230Z,7.31
2022-10-19T07:01:06.437Z,7.12
2022-10-19T07:03:33.326Z,7.51
2022-10-19T07:06:02.306Z,7.60
2022-10-19T07:08:30.542Z,7.74
2022-10-19T07:10:59.709Z,7.59
2022-10-19T07:13:27.655Z,7.94
2022-10-19T07:16:08.739Z,7.73
2022-10-19T07:18:36.410Z,7.69
2022-10-19T07:21:05.958Z,7.92
2022-10-19T07:23:34.433Z,7.93
2022-10-19T07:26:08.858Z,7.98
2022-10-19T07:28:35.631Z,7.97
2022-10-19T07:31:10.778Z,8.13
2022-10-19T07:33:37.696Z,8.29
2022-10-19T07:36:07.435Z,8.20
2022-10-19T07:38:34.982Z,8.01
2022-10-19T07:41:07.961Z,8.33
2022-10-19T07:43:34.901Z,8.36
2022-10-19T07:46:07.027Z,8.48
2022-10-19T07:48:34.656Z,8.59
2022-10-19T07:51:02.971Z,8.73
2022-10-19T07:53:29.423Z,8.21
2022-10-19T07:55:56.220Z,8.88
2022-10-19T07:58:22.752Z,8.93
2022-10-19T08:00:49.138Z,8.61
2022-10-19T08:06:11.300Z,8.72
2022-10-19T08:08:38.514Z,8.65
2022-10-19T08:11:08.171Z,9.23
2022-10-19T08:13:34.791Z,9.21
2022-10-19T08:16:01.532Z,8.95
2022-10-19T08:18:27.985Z,9.37
2022-10-19T08:20:54.404Z,9.41
2022-10-19T08:23:20.807Z,10.04
2022-10-19T08:25:47.239Z,10.33
2022-10-19T08:28:13.699Z,10.47
2022-10-19T08:30:40.152Z,10.33
2022-10-19T08:33:06.584Z,10.70
2022-10-19T08:35:33.102Z,11.36
2022-10-19T08:38:02.104Z,10.96
2022-10-19T08:40:30.923Z,10.94
2022-10-19T08:43:16.066Z,10.82
2022-10-19T08:46:01.151Z,11.04
2022-10-19T08:48:29.814Z,11.10
2022-10-19T08:50:58.092Z,10.65
2022-10-19T08:53:33.541Z,11.51
2022-10-19T08:56:45.966Z,11.82
2022-10-19T08:59:46.342Z,12.85
2022-10-19T09:02:22.340Z,12.22
2022-10-19T09:05:01.640Z,12.05
2022-10-19T09:07:32.868Z,12.39
2022-10-19T09:10:14.540Z,12.85
2022-10-19T09:13:01.608Z,13.74
2022-10-19T09:15:42.854Z,12.78
2022-10-19T09:18:24.313Z,14.03
2022-10-19T09:21:09.119Z,13.63
2022-10-19T09:23:39.987Z,12.90
2022-10-19T09:26:18.341Z,13.14
2022-10-19T09:28:54.867Z,12.76
2022-10-19T09:31:40.476Z,13.25
2022-10-19T09:34:15.540Z,13.59
2022-10-19T09:36:50.353Z,13.37
2022-10-19T09:39:18.108Z,13.74
2022-10-19T09:41:51.668Z,13.09
2022-10-19T09:44:18.152Z,13.97
2022-10-19T09:46:51.341Z,13.48
2022-10-19T09:49:39.018Z,14.69
2022-10-19T09:52:05.814Z,13.66
2022-10-19T09:54:37.657Z,13.66
2022-10-19T09:57:05.214Z,14.01
2022-10-19T09:59:36.896Z,13.73
2022-10-19T10:02:14.744Z,13.93
2022-10-19T10:04:41.346Z,13.15
2022-10-19T10:07:15.180Z,13.65
2022-10-19T10:09:43.293Z,13.55
2022-10-19T10:12:09.772Z,13.41
2022-10-19T10:14:36.585Z,13.50
2022-10-19T10:17:06.867Z,13.18
2022-10-19T10:19:34.501Z,13.33
2022-10-19T10:22:04.084Z,13.07
2022-10-19T10:24:33.127Z,12.88
2022-10-19T10:27:03.059Z,13.66
2022-10-19T10:29:36.127Z,12.86
2022-10-19T10:32:20.339Z,12.91
2022-10-19T10:35:06.170Z,12.50
2022-10-19T10:37:39.983Z,13.19
2022-10-19T10:40:28.342Z,13.03
2022-10-19T10:42:57.793Z,12.83
2022-10-19T10:45:29.320Z,13.20
2022-10-19T10:47:57.686Z,12.96
2022-10-19T10:50:31.514Z,13.07
2022-10-19T10:53:01.012Z,13.27
2022-10-19T10:55:29.349Z,13.10
2022-10-19T10:58:18.119Z,13.29
2022-10-19T11:00:45.679Z,13.19
2022-10-19T11:03:26.648Z,13.49
2022-10-19T11:05:57.471Z,13.55
2022-10-19T11:08:31.944Z,13.77
2022-10-19T11:11:36.375Z,14.01
2022-10-19T11:14:36.656Z,13.65
2022-10-19T11:17:15.546Z,13.58
2022-10-19T11:19:44.135Z,13.15
2022-10-19T11:22:35.258Z,13.76
2022-10-19T11:25:28.321Z,13.56
2022-10-19T11:28:05.085Z,13.99
2022-10-19T11:30:42.505Z,13.74
2022-10-19T11:33:32.851Z,13.42
2022-10-19T11:36:04.008Z,13.51
2022-10-19T11:38:51.868Z,13.78
2022-10-19T11:41:27.362Z,13.75
2022-10-19T11:44:16.363Z,13.45
2022-10-19T11:47:04.519Z,13.43
2022-10-19T11:49:47.027Z,13.58
2022-10-19T11:52:20.442Z,13.80
2022-10-19T11:55:07.965Z,14.29
2022-10-19T11:57:51.317Z,14.11
2022-10-19T12:00:38.236Z,13.74
2022-10-19T12:03:17.452Z,14.24
2022-10-19T12:05:43.839Z,13.99
2022-10-19T12:08:21.078Z,14.12
2022-10-19T12:10:53.253Z,13.97
2022-10-19T12:13:25.971Z,13.91
2022-10-19T12:15:54.176Z,13.87
2022-10-19T12:18:26.472Z,14.12
2022-10-19T12:20:57.082Z,14.23
2022-10-19T12:23:36.294Z,13.95
2022-10-19T12:26:06.286Z,14.26
2022-10-19T12:28:36.635Z,14.34
2022-10-19T12:31:04.833Z,14.23
2022-10-19T12:34:10.062Z,14.24
2022-10-19T12:37:05.807Z,14.34
2022-10-19T12:39:57.208Z,14.54
2022-10-19T12:42:55.974Z,14.92
2022-10-19T12:45:35.861Z,14.86
2022-10-19T12:48:08.211Z,15.18
2022-10-19T12:50:49.917Z,14.86
2022-10-19T12:53:31.318Z,14.77
2022-10-19T12:56:05.691Z,14.79
2022-10-19T12:58:47.446Z,15.33
2022-10-19T13:01:35.878Z,15.24
2022-10-19T13:04:16.481Z,14.92
2022-10-19T13:06:46.098Z,15.03
2022-10-19T13:09:27.850Z,15.30
2022-10-19T13:12:21.539Z,15.44
2022-10-19T13:15:00.418Z,15.78
2022-10-19T13:17:36.142Z,15.45
2022-10-19T13:20:22.856Z,15.86
2022-10-19T13:23:12.534Z,16.68
2022-10-19T13:25:42.712Z,16.42
2022-10-19T13:28:09.121Z,18.21
2022-10-19T13:30:35.621Z,16.37
2022-10-19T13:33:23.810Z,16.97
2022-10-19T13:35:59.316Z,16.94
2022-10-19T13:38:59.385Z,16.92
2022-10-19T13:41:47.580Z,17.38
2022-10-19T13:44:20.286Z,17.00
2022-10-19T13:47:23.462Z,17.50
2022-10-19T13:50:07.596Z,16.74
2022-10-19T13:52:51.221Z,15.50
2022-10-19T13:55:51.786Z,16.45
2022-10-19T13:58:43.406Z,16.60
2022-10-19T14:01:48.688Z,16.40
2022-10-19T14:04:19.292Z,15.94
2022-10-19T14:07:00.869Z,15.05
2022-10-19T14:09:40.530Z,15.21
2022-10-19T14:12:23.850Z,15.49
2022-10-19T14:14:51.199Z,15.03
2022-10-19T14:17:23.157Z,15.20
2022-10-19T14:19:52.871Z,14.97
2022-10-19T14:22:29.925Z,15.27
2022-10-19T14:25:04.601Z,15.07
2022-10-19T14:27:31.579Z,15.11
2022-10-19T14:29:58.387Z,15.04
2022-10-19T14:32:28.956Z,14.62
2022-10-19T14:37:36.939Z,14.64
2022-10-19T14:40:26.515Z,14.59
2022-10-19T14:42:55.575Z,14.62
2022-10-19T14:45:30.723Z,14.47
2022-10-19T14:48:02.707Z,14.30
2022-10-19T14:50:41.444Z,14.06
2022-10-19T14:53:32.598Z,14.50
2022-10-19T14:56:06.411Z,13.81
2022-10-19T14:58:40.028Z,14.12
2022-10-19T15:01:07.390Z,14.13
2022-10-19T15:03:34.356Z,14.05
2022-10-19T15:06:06.322Z,14.06
2022-10-19T15:08:39.747Z,13.94
2022-10-19T15:11:07.047Z,13.92
2022-10-19T15:13:41.221Z,13.67
2022-10-19T15:16:29.361Z,14.22
2022-10-19T15:18:55.887Z,13.77
2022-10-19T15:21:22.543Z,13.78
2022-10-19T15:23:53.105Z,13.86
2022-10-19T15:26:25.479Z,13.90
2022-10-19T15:28:53.013Z,13.62
2022-10-19T15:31:28.586Z,13.71
2022-10-19T15:33:57.988Z,13.62
2022-10-19T15:36:25.417Z,13.55
2022-10-19T15:39:06.173Z,13.77
2022-10-19T15:41:44.248Z,13.44
2022-10-19T15:44:47.466Z,13.54
2022-10-19T15:47:17.046Z,13.52
2022-10-19T15:49:43.371Z,13.53
2022-10-19T15:52:25.269Z,13.40
2022-10-19T15:54:53.882Z,13.40
2022-10-19T15:57:27.561Z,13.43
2022-10-19T15:59:55.749Z,13.25
2022-10-19T16:02:22.805Z,13.16
2022-10-19T16:04:49.209Z,13.10
2022-10-19T16:07:22.914Z,12.99
2022-10-19T16:09:49.314Z,12.84
2022-10-19T16:12:15.762Z,12.32
2022-10-19T16:14:42.142Z,12.89
2022-10-19T16:17:12.264Z,12.73
2022-10-19T16:19:38.811Z,12.92
2022-10-19T16:22:05.487Z,12.89
2022-10-19T16:24:32.102Z,12.65
2022-10-19T16:26:58.685Z,12.78
2022-10-19T16:29:28.217Z,12.18
2022-10-19T16:31:55.687Z,12.50
2022-10-19T16:34:22.141Z,12.64
2022-10-19T16:36:48.563Z,12.62
2022-10-19T16:39:15.002Z,12.53
2022-10-19T16:41:41.417Z,12.56
2022-10-19T16:44:11.674Z,12.48
2022-10-19T16:46:38.535Z,12.46
2022-10-19T16:49:05.104Z,12.25
2022-10-19T16:51:39.886Z,11.80
2022-10-19T16:54:08.896Z,12.26
2022-10-19T16:56:36.480Z,12.27
2022-10-19T16:59:05.954Z,11.63
2022-10-19T17:01:34.554Z,11.80
2022-10-19T17:04:01.619Z,12.18
2022-10-19T17:06:28.381Z,12.16
2022-10-19T17:11:45.342Z,11.95
2022-10-19T17:14:12.671Z,12.07
2022-10-19T17:16:39.949Z,11.89
2022-10-19T17:19:08.418Z,11.95
2022-10-19T17:21:36.481Z,11.53
2022-10-19T17:24:03.263Z,11.91
2022-10-19T17:26:38.986Z,11.33
2022-10-19T17:29:06.724Z,11.73
2022-10-19T17:31:33.359Z,11.83
2022-10-19T17:34:00.006Z,11.37
2022-10-19T17:36:31.915Z,11.52
2022-10-19T17:39:00.866Z,11.70
2022-10-19T17:41:28.450Z,11.14
2022-10-19T17:43:55.510Z,11.58
2022-10-19T17:46:25.898Z,11.27
2022-10-19T17:48:52.346Z,11.22
2022-10-19T17:51:21.752Z,11.61
2022-10-19T17:53:49.081Z,11.25
2022-10-19T17:56:18.135Z,11.13
2022-10-19T17:58:44.923Z,11.52
2022-10-19T18:01:12.311Z,11.40
2022-10-19T18:03:39.845Z,11.05
2022-10-19T18:06:10.795Z,11.52
2022-10-19T18:08:40.581Z,11.52
2022-10-19T18:11:17.476Z,11.45
2022-10-19T18:13:44.081Z,11.45
2022-10-19T18:16:23.107Z,11.49
2022-10-19T18:18:53.025Z,11.39
2022-10-19T18:21:22.648Z,11.34
2022-10-19T18:23:49.123Z,11.34
2022-10-19T18:26:19.191Z,11.35
2022-10-19T18:28:46.339Z,10.95
2022-10-19T18:31:18.566Z,11.03
2022-10-19T18:33:46.664Z,11.23
2022-10-19T18:36:13.366Z,11.25
2022-10-19T18:38:39.987Z,10.94
2022-10-19T18:41:09.555Z,11.14
2022-10-19T18:43:36.065Z,10.95
2022-10-19T18:46:02.496Z,11.37
2022-10-19T18:48:29.775Z,11.42
2022-10-19T18:50:57.598Z,11.35
2022-10-19T18:53:24.358Z,10.82
2022-10-19T18:56:05.731Z,11.21
2022-10-19T18:58:33.451Z,11.19
2022-10-19T19:01:04.367Z,11.20
2022-10-19T19:03:31.471Z,11.20
2022-10-19T19:06:10.953Z,11.27
2022-10-19T19:08:37.594Z,10.67
2022-10-19T19:11:16.734Z,10.97
2022-10-19T19:13:49.196Z,11.06
2022-10-19T19:16:15.654Z,11.19
2022-10-19T19:18:42.094Z,11.08
2022-10-19T19:21:24.599Z,10.58
2022-10-19T19:23:52.204Z,10.94
2022-10-19T19:26:20.518Z,10.97
2022-10-19T19:28:49.076Z,10.95
2022-10-19T19:31:19.000Z,10.60
2022-10-19T19:33:46.783Z,11.05
2022-10-19T19:36:15.077Z,10.88
2022-10-19T19:38:42.200Z,10.32
2022-10-19T19:41:12.526Z,10.70
2022-10-19T19:43:39.695Z,10.96
2022-10-19T19:46:09.273Z,10.99
2022-10-19T19:48:36.709Z,11.06
2022-10-19T19:51:03.312Z,10.78
2022-10-19T19:53:29.760Z,10.68
2022-10-19T19:55:56.178Z,10.51
2022-10-19T19:58:22.665Z,10.74
2022-10-19T20:00:49.092Z,10.68
2022-10-19T20:03:15.486Z,10.46
2022-10-19T20:05:42.031Z,10.73
2022-10-19T20:08:08.716Z,10.62
2022-10-19T20:10:40.354Z,10.81
2022-10-19T20:13:06.924Z,10.69
2022-10-19T20:15:33.394Z,10.22
2022-10-19T20:17:59.894Z,10.63
2022-10-19T20:20:26.372Z,10.54
2022-10-19T20:22:52.834Z,10.59
2022-10-19T20:25:19.317Z,10.58
2022-10-19T20:27:45.730Z,10.16
2022-10-19T20:30:12.154Z,10.55
2022-10-19T20:32:38.855Z,10.49
2022-10-19T20:35:05.740Z,10.60
2022-10-19T20:37:32.128Z,10.06
2022-10-19T20:39:58.602Z,10.00
2022-10-19T20:42:25.157Z,10.53
2022-10-19T20:44:51.662Z,10.44
2022-10-19T20:47:18.201Z,10.34
2022-10-19T20:49:44.661Z,10.38
2022-10-19T20:52:11.103Z,10.21
2022-10-19T20:54:37.550Z,9.89
2022-10-19T20:57:04.042Z,10.10
2022-10-19T20:59:30.503Z,10.31
2022-10-19T21:01:57.599Z,9.98
2022-10-19T21:04:24.834Z,10.29
2022-10-19T21:06:51.954Z,10.37
2022-10-19T21:09:21.674Z,10.27
2022-10-19T21:11:50.153Z,10.10
2022-10-19T21:14:28.775Z,10.33
2022-10-19T21:16:57.430Z,9.80
2022-10-19T21:19:25.610Z,10.29
2022-10-19T21:21:55.299Z,9.98
2022-10-19T21:24:24.004Z,10.30
2022-10-19T21:29:21.977Z,10.15
2022-10-19T21:31:52.078Z,10.19
2022-10-19T21:34:21.338Z,10.18
2022-10-19T21:36:48.701Z,10.18
2022-10-19T21:39:15.425Z,10.21
2022-10-19T21:41:41.854Z,10.19
2022-10-19T21:44:08.713Z,10.11
2022-10-19T21:46:35.239Z,10.06
2022-10-19T21:49:01.679Z,10.22
2022-10-19T21:51:47.808Z,10.18
2022-10-19T21:54:16.665Z,10.24
2022-10-19T21:56:44.252Z,10.19
2022-10-19T21:59:11.009Z,10.11
2022-10-19T22:01:40.403Z,10.15
2022-10-19T22:04:11.892Z,10.23
2022-10-19T22:06:38.385Z,9.80
2022-10-19T22:09:07.445Z,10.25
2022-10-19T22:11:34.430Z,9.80
2022-10-19T22:14:02.858Z,10.09
2022-10-19T22:16:30.512Z,10.33
2022-10-19T22:18:57.535Z,9.91
2022-10-19T22:21:27.118Z,10.30
2022-10-19T22:23:55.902Z,10.24
2022-10-19T22:26:25.759Z,10.30
2022-10-19T22:28:52.897Z,10.21
2022-10-19T22:31:19.377Z,10.16
2022-10-19T22:33:45.851Z,10.21
2022-10-19T22:36:13.196Z,10.11
2022-10-19T22:38:40.506Z,10.14
2022-10-19T22:41:44.661Z,10.11
2022-10-19T22:44:11.213Z,10.18
2022-10-19T22:46:37.683Z,10.16
2022-10-19T22:49:04.292Z,10.21
2022-10-19T22:51:30.812Z,9.91
2022-10-19T22:53:57.250Z,9.82
2022-10-19T22:56:23.746Z,10.25
2022-10-19T22:58:50.166Z,10.24
2022-10-19T23:01:17.070Z,10.12
2022-10-19T23:03:43.929Z,9.97
2022-10-19T23:06:12.804Z,10.07
2022-10-19T23:08:39.396Z,10.10
2022-10-19T23:11:05.993Z,10.01
2022-10-19T23:13:32.430Z,10.07
2022-10-19T23:15:58.980Z,10.07
2022-10-19T23:18:25.652Z,10.08
2022-10-19T23:21:04.515Z,10.06
2022-10-19T23:23:33.110Z,9.97
2022-10-19T23:26:07.336Z,10.07
2022-10-19T23:28:35.814Z,9.96
2022-10-19T23:31:08.577Z,10.01
2022-10-19T23:33:35.583Z,9.57
2022-10-19T23:36:16.289Z,9.95
2022-10-19T23:38:44.387Z,9.73
2022-10-19T23:41:12.288Z,9.81
2022-10-19T23:43:39.375Z,9.86
2022-10-19T23:46:06.492Z,9.90
2022-10-19T23:48:32.989Z,9.66
2022-10-19T23:51:02.179Z,9.83
2022-10-19T23:53:30.138Z,9.82
2022-10-19T23:56:06.132Z,9.35
2022-10-19T23:58:33.356Z,9.78
